Aviation Digital Data Service (ADDS)

Output produced by METARs form (1959 UTC 31 January 2023)
found at http://www.aviationweather.gov/metar/data/
 
KIPT 311954Z 03007KT 10SM OVC044 00/M09 A3020 RMK AO2 SLP233 T00001089
KIPT 311854Z VRB06KT 10SM BKN043 00/M09 A3021 RMK AO2 SLP234 T00001089
KIPT 311754Z 03006KT 10SM OVC038 M01/M08 A3024 RMK AO2 SLP245 60000 T10061078 10006 21011 58008
KIPT 311654Z VRB04KT 10SM OVC034 M01/M07 A3026 RMK AO2 SLP254 T10061072
KIPT 311614Z VRB03KT 10SM OVC031 M01/M07 A3027 RMK AO2 T10061072
KIPT 311554Z 01005KT 10SM OVC027 M01/M07 A3027 RMK AO2 SLP255 T10111072
KIPT 311527Z 01003KT 10SM BKN026 OVC034 M01/M07 A3027 RMK AO2 T10111067
KIPT 311454Z 36007KT 330V030 10SM SCT024 OVC033 M01/M07 A3026 RMK AO2 SNE10 SLP252 P0000 60000 T10111067 51010
KIPT 311416Z 36008G15KT 8SM FEW019 OVC030 M01/M06 A3025 RMK AO2 SNE10 P0000 T10111056
KIPT 311403Z 36006KT 4SM -SN FEW020 OVC028 M01/M05 A3025 RMK AO2 P0000 T10111050
KIPT 311354Z 34008KT 2 1/2SM -SN FEW015 OVC026 M01/M04 A3025 RMK AO2 SNB1258E14B16 SLP248 P0000 T10111044
KIPT 311351Z 36008KT 2 1/2SM -SN SCT018 OVC026 M01/M04 A3025 RMK AO2 SNB1258E14B16 P0000
KIPT 311335Z 36007KT 1 3/4SM -SN FEW016 BKN024 OVC034 M01/M04 A3024 RMK AO2 SNB1258E14B16 P0000 T10061039
KIPT 311322Z 34008KT 2 1/2SM -SN SCT018 BKN029 OVC034 00/M03 A3023 RMK AO2 SNB1258E14B16 P0000 T00001028
KIPT 311314Z 32006KT 5SM HZ BKN029 OVC035 00/M03 A3023 RMK AO2 SNB1258E14 P0000 T00001028
KIPT 311254Z 32005KT 10SM BKN030 OVC038 01/M03 A3023 RMK AO2 SLP240 T00061028
KIPT 311226Z 26005KT 10SM BKN030 OVC042 01/M03 A3022 RMK AO2 T00061033
KIPT 311154Z 27004KT 10SM BKN028 OVC038 01/M03 A3020 RMK AO2 SLP231 60000 70004 T00061028 10017 20006 53015
KIPT 311054Z AUTO 30004KT 10SM FEW023 OVC036 01/M02 A3018 RMK AO2 SLP223 T00061022
KIPT 311046Z AUTO 28003KT 10SM SCT023 OVC037 01/M02 A3018 RMK AO2 T00061022
KIPT 311022Z AUTO 31003KT 10SM BKN022 OVC034 01/M02 A3017 RMK AO2 T00061017
KIPT 310954Z AUTO 31004KT 10SM OVC032 01/M02 A3016 RMK AO2 SLP218 T00061022
KIPT 310928Z AUTO 27003KT 10SM FEW021 BKN031 OVC060 01/M02 A3016 RMK AO2 T00061017
KIPT 310854Z AUTO 00000KT 10SM BKN027 OVC075 01/M01 A3016 RMK AO2 SNE28 SLP216 P0000 60000 T00111011 53013
KIPT 310754Z AUTO 00000KT 7SM -SN BKN019 OVC025 01/M01 A3015 RMK AO2 SNB0658 SLP212 P0000 T00111011
KIPT 310654Z AUTO 00000KT 10SM FEW020 OVC029 02/M01 A3012 RMK AO2 SNB30E40 SLP203 P0000 T00171011
KIPT 310554Z AUTO 20003KT 10SM SCT020 OVC027 01/00 A3012 RMK AO2 SNB07E34 SLP203 P0001 60004 T00110000 10072 20011 53007
KIPT 310530Z AUTO 00000KT 8SM -SN BKN016 OVC027 02/M01 A3012 RMK AO2 SNB07 P0001 T00171006
KIPT 310513Z AUTO 30005KT 5SM -SN BR BKN014 OVC019 02/M01 A3013 RMK AO2 SNB07 P0000 T00171006
KIPT 310454Z AUTO 27005KT 10SM OVC018 03/00 A3012 RMK AO2 SLP203 T00280000 400940028
KIPT 310411Z AUTO 35011KT 10SM SCT011 BKN018 OVC043 03/01 A3010 RMK AO2 T00330011
KIPT 310354Z AUTO 30006KT 10SM OVC043 04/02 A3009 RMK AO2 SLP193 T00440022
KIPT 310310Z 27007KT 10SM SCT021 OVC038 04/03 A3009 RMK AO2 T00440028
KIPT 310254Z 26007KT 10SM OVC020 05/03 A3010 RMK AO2 SLP196 60003 T00500028 50007
KIPT 310225Z 28008KT 10SM OVC017 05/03 A3009 RMK AO2 T00500028
KIPT 310154Z 29009KT 8SM BKN013 OVC046 06/04 A3010 RMK AO2 RAE26 SLP197 P0002 T00560039
KIPT 310144Z 29008KT 10SM FEW013 SCT022 OVC045 06/04 A3010 RMK AO2 RAE26 P0002 T00610039
KIPT 310129Z 29009KT 10SM SCT014 BKN022 OVC049 06/04 A3010 RMK AO2 RAE26 P0002 T00610039
KIPT 310107Z 27007KT 5SM -RA BR BKN013 OVC019 07/05 A3010 RMK AO2 P0001 T00670050
KIPT 310054Z 28005KT 7SM -RA SCT017 BKN022 OVC055 07/05 A3009 RMK AO2 SLP194 P0001 T00670050
KIPT 302354Z 27004KT 10SM -RA BKN026 OVC031 07/04 A3008 RMK AO2 RAB49 SLP188 P0000 60000 T00720039 10094 20072 53007
KIPT 302335Z 27004KT 10SM BKN028 OVC035 07/04 A3007 RMK AO2 T00720039
KIPT 302254Z 28004KT 10SM FEW037 BKN045 OVC090 08/04 A3007 RMK AO2 SLP185 T00780039
KIPT 302154Z 25006KT 10SM FEW046 OVC070 08/04 A3006 RMK AO2 SLP181 T00830039
KIPT 302054Z 27006KT 10SM SCT032 BKN043 BKN080 09/04 A3005 RMK AO2 SLP180 T00940039 56010
KIPT 301954Z 14003KT 10SM OVC036 08/04 A3006 RMK AO2 SLP180 T00780039
KIPT 301854Z 00000KT 10SM OVC032 08/04 A3005 RMK AO2 SLP180 T00830039
KIPT 301818Z 03003KT 10SM OVC031 08/04 A3007 RMK AO2 T00830039
KIPT 301754Z 00000KT 10SM OVC027 08/04 A3008 RMK AO2 SLP190 T00780039 10078 20028 58024
KIPT 301654Z 00000KT 10SM BKN020 OVC026 07/04 A3013 RMK AO2 SLP206 T00720039
KIPT 301554Z 00000KT 10SM OVC019 06/03 A3016 RMK AO2 SLP219 T00560033
KIPT 301454Z 12006KT 7SM OVC018 04/03 A3016 RMK AO2 SLP215 T00440028 50006
KIPT 301354Z 00000KT 8SM OVC020 04/03 A3016 RMK AO2 SLP218 T00390033
KIPT 301254Z 11003KT 6SM BR FEW003 OVC022 03/02 A3013 RMK AO2 SLP208 T00280022
KIPT 301212Z 00000KT 5SM BR FEW003 OVC025 03/02 A3014 RMK AO2 T00280017
KIPT 301154Z 35004KT 9SM OVC026 04/03 A3014 RMK AO2 SLP210 60000 T00390028 10039 20028 58007
KIPT 301054Z AUTO 00000KT 8SM OVC027 04/03 A3015 RMK AO2 SLP214 T00390028
KIPT 301035Z AUTO 33003KT 8SM BKN028 OVC050 04/03 A3016 RMK AO2 T00390028
KIPT 301002Z AUTO 30003KT 8SM SCT028 OVC055 03/02 A3016 RMK AO2 T00330022
KIPT 300954Z AUTO 00000KT 9SM BKN028 OVC055 03/02 A3016 RMK AO2 SLP217 T00330022
KIPT 300941Z AUTO 00000KT 9SM BKN029 OVC055 03/02 A3015 RMK AO2 T00330022
KIPT 300854Z AUTO 00000KT 10SM BKN033 OVC050 03/02 A3016 RMK AO2 RAB14E35 SLP216 P0000 60000 T00330022 53006
KIPT 311722Z 3118/0118 33005KT P6SM BKN035 
     FM010600 29004KT 6SM -SN BR BKN035 
     FM011100 28007KT P6SM BKN035